Time;durP1;ratioP1;P1;durP2;ratioP2;P2;SDS_P1;SDS_P2;PMS_P1;PMS_P2;Temp;Humidity;BMP_temperature;BMP_pressure;BME280_temperature;BME280_humidity;BME280_pressure;Samples;Min_cycle;Max_cycle;Signal;HPM_P1;HPM_P2
2023/04/15 00:00:27;;;;;;;10.20;8.73;;;15.30;99.90;;;;;;4592509;19;20007;-30
2023/04/15 00:02:18;;;;;;;11.63;8.73;;;15.30;99.90;;;;;;4592491;19;20018;-30
2023/04/15 00:03:52;;;;;;;11.65;8.60;;;15.20;99.90;;;;;;4590445;19;20007;-30
2023/04/15 00:05:25;;;;;;;9.77;8.60;;;15.20;99.90;;;;;;4590723;19;20006;-30
2023/04/15 00:06:56;;;;;;;11.95;9.02;;;15.10;99.90;;;;;;4591110;19;20066;-30
2023/04/15 00:08:28;;;;;;;11.32;8.88;;;15.00;99.90;;;;;;4592088;19;20011;-30
2023/04/15 00:10:03;;;;;;;9.88;8.32;;;14.90;99.90;;;;;;4591857;19;20047;-30
2023/04/15 00:11:35;;;;;;;11.30;9.00;;;14.90;99.90;;;;;;4592041;19;20329;-30
2023/04/15 00:13:07;;;;;;;10.98;9.23;;;14.90;99.90;;;;;;4592146;19;20386;-30
2023/04/15 00:14:39;;;;;;;12.35;9.27;;;14.80;99.90;;;;;;4589171;19;20021;-30
2023/04/15 00:16:14;;;;;;;10.90;9.50;;;14.80;99.90;;;;;;4590692;19;20023;-31
2023/04/15 00:17:48;;;;;;;12.02;9.07;;;14.80;99.90;;;;;;4591704;19;20010;-30
2023/04/15 00:19:21;;;;;;;11.33;8.67;;;14.80;99.90;;;;;;4591029;19;20007;-30
2023/04/15 00:20:54;;;;;;;12.10;9.07;;;14.80;99.90;;;;;;4591220;19;20316;-30
2023/04/15 00:22:28;;;;;;;10.60;8.68;;;14.80;99.90;;;;;;4591324;19;20347;-31
2023/04/15 00:24:00;;;;;;;10.18;9.07;;;14.70;99.90;;;;;;4590299;19;20018;-30
2023/04/15 00:25:31;;;;;;;9.38;8.38;;;14.70;99.90;;;;;;4591792;19;20333;-30
2023/04/15 00:27:03;;;;;;;9.88;8.27;;;14.70;99.90;;;;;;4588946;19;20018;-31
2023/04/15 00:28:36;;;;;;;11.55;9.40;;;14.80;99.90;;;;;;4590087;19;20015;-30
2023/04/15 00:30:07;;;;;;;9.52;8.43;;;14.80;99.90;;;;;;4590245;19;20010;-30
2023/04/15 00:31:39;;;;;;;10.00;8.90;;;14.80;99.90;;;;;;4591020;19;20014;-31
2023/04/15 00:33:12;;;;;;;11.35;8.60;;;14.70;99.90;;;;;;4589934;19;20387;-30
2023/04/15 00:34:46;;;;;;;11.33;9.50;;;14.70;99.90;;;;;;4590845;19;20035;-31
2023/04/15 00:36:17;;;;;;;;;;;14.70;99.90;;;;;;4591890;19;20011;-30
2023/04/15 00:37:49;;;;;;;11.60;9.25;;;14.70;99.90;;;;;;4591685;19;20001;-30
2023/04/15 00:39:21;;;;;;;10.13;8.80;;;14.60;99.90;;;;;;4591104;19;20018;-30
2023/04/15 00:40:54;;;;;;;10.80;9.07;;;14.60;99.90;;;;;;4591430;19;20036;-30
2023/04/15 00:42:25;;;;;;;11.20;9.20;;;14.60;99.90;;;;;;4590203;19;20006;-30
2023/04/15 00:43:56;;;;;;;10.02;8.93;;;14.50;99.90;;;;;;4590059;19;20015;-30
2023/04/15 00:45:27;;;;;;;11.13;9.75;;;14.50;99.90;;;;;;4590500;19;20015;-30
2023/04/15 00:46:59;;;;;;;;;;;14.50;99.90;;;;;;4591845;19;20556;-30
2023/04/15 00:48:31;;;;;;;10.90;8.40;;;14.50;99.90;;;;;;4590840;19;19917;-30
2023/04/15 00:50:02;;;;;;;;;;;14.50;99.90;;;;;;4590758;19;20018;-30
2023/04/15 00:51:35;;;;;;;11.68;8.27;;;14.50;99.90;;;;;;4589971;19;19922;-30
2023/04/15 00:53:06;;;;;;;10.20;8.60;;;14.50;99.90;;;;;;4590318;19;20034;-30
2023/04/15 00:54:38;;;;;;;12.43;9.70;;;14.50;99.90;;;;;;4589768;19;20010;-30
2023/04/15 00:56:09;;;;;;;;;;;14.50;99.90;;;;;;4591392;19;20018;-30
2023/04/15 00:57:40;;;;;;;10.80;8.97;;;14.50;99.90;;;;;;4587329;19;19978;-30
2023/04/15 00:59:14;;;;;;;11.95;9.35;;;14.40;99.90;;;;;;4587655;19;20011;-30
2023/04/15 01:00:46;;;;;;;10.13;8.07;;;14.40;99.90;;;;;;4586723;19;20019;-30
2023/04/15 01:02:17;;;;;;;11.10;9.85;;;14.40;99.90;;;;;;4587085;19;20356;-30
2023/04/15 01:03:49;;;;;;;10.95;8.63;;;14.40;99.90;;;;;;4588693;19;20014;-30
2023/04/15 01:05:22;;;;;;;12.90;9.40;;;14.50;99.90;;;;;;4588010;19;20018;-30
2023/04/15 01:06:53;;;;;;;12.63;9.30;;;14.40;99.90;;;;;;4587926;19;20445;-30
2023/04/15 01:08:28;;;;;;;10.50;8.00;;;14.50;99.90;;;;;;4588764;19;20409;-30
2023/04/15 01:09:59;;;;;;;11.37;9.33;;;14.40;99.90;;;;;;4590170;19;20407;-30
2023/04/15 01:11:33;;;;;;;10.23;8.40;;;14.50;99.90;;;;;;4590522;19;20034;-30
2023/04/15 01:13:04;;;;;;;11.37;9.17;;;14.50;99.90;;;;;;4590248;19;20436;-30
2023/04/15 01:14:37;;;;;;;11.97;9.73;;;14.40;99.90;;;;;;4589163;19;20500;-30
2023/04/15 01:16:08;;;;;;;12.90;9.80;;;14.50;99.90;;;;;;4592365;19;20015;-30
2023/04/15 01:17:39;;;;;;;10.23;8.82;;;14.50;99.90;;;;;;4592870;19;20007;-30
2023/04/15 01:19:11;;;;;;;10.13;8.73;;;14.40;99.90;;;;;;4592404;19;20499;-30
2023/04/15 01:20:42;;;;;;;13.55;8.38;;;14.50;99.90;;;;;;4590615;19;20010;-31
2023/04/15 01:22:15;;;;;;;10.43;8.87;;;14.40;99.90;;;;;;4592211;19;20075;-30
2023/04/15 01:23:47;;;;;;;12.13;9.37;;;14.40;99.90;;;;;;4591313;19;20047;-30
2023/04/15 01:25:19;;;;;;;;;;;14.40;99.90;;;;;;4591881;19;20014;-30
2023/04/15 01:26:50;;;;;;;11.18;9.10;;;14.40;99.90;;;;;;4591804;19;20266;-30
2023/04/15 01:28:23;;;;;;;12.30;9.57;;;14.40;99.90;;;;;;4590548;19;20039;-30
2023/04/15 01:29:54;;;;;;;;;;;14.40;99.90;;;;;;4592166;19;20017;-30
2023/04/15 01:31:26;;;;;;;11.45;9.73;;;14.40;99.90;;;;;;4589262;19;19934;-30
2023/04/15 01:32:57;;;;;;;10.77;8.73;;;14.40;99.90;;;;;;4590366;19;20342;-30
2023/04/15 01:34:29;;;;;;;11.27;9.38;;;14.40;99.90;;;;;;4589489;19;20385;-31
2023/04/15 01:36:00;;;;;;;11.20;9.35;;;14.40;99.90;;;;;;4590763;19;20003;-30
2023/04/15 01:37:32;;;;;;;11.07;9.15;;;14.40;99.90;;;;;;4591493;19;20011;-30
2023/04/15 01:39:04;;;;;;;10.32;9.00;;;14.40;99.90;;;;;;4590988;19;20014;-30
2023/04/15 01:40:35;;;;;;;11.53;9.13;;;14.40;99.90;;;;;;4591711;19;20030;-30
2023/04/15 01:42:09;;;;;;;10.90;9.23;;;14.30;99.90;;;;;;4591996;19;20356;-31
2023/04/15 01:43:41;;;;;;;10.80;8.90;;;14.40;99.90;;;;;;4591516;19;20011;-30
2023/04/15 01:45:12;;;;;;;11.98;9.05;;;14.30;99.90;;;;;;4591759;19;20014;-30
2023/04/15 01:46:44;;;;;;;11.07;8.55;;;14.30;99.90;;;;;;4592151;19;20015;-30
2023/04/15 01:48:15;;;;;;;11.40;8.77;;;14.30;99.90;;;;;;4591642;19;20010;-30
2023/04/15 01:49:46;;;;;;;14.85;9.63;;;14.30;99.90;;;;;;4591703;19;20010;-30
2023/04/15 01:51:18;;;;;;;12.18;9.30;;;14.30;99.90;;;;;;4592002;19;20006;-30
2023/04/15 01:53:08;;;;;;;11.18;9.10;;;14.30;99.90;;;;;;4591112;19;20081;-30
2023/04/15 01:54:39;;;;;;;10.13;8.57;;;14.30;99.90;;;;;;4590501;19;20352;-30
2023/04/15 01:56:11;;;;;;;;;;;14.30;99.90;;;;;;4590740;19;20042;-30
2023/04/15 01:57:42;;;;;;;12.63;9.93;;;14.30;99.90;;;;;;4590272;19;20317;-30
2023/04/15 01:59:14;;;;;;;11.57;9.43;;;14.30;99.90;;;;;;4590264;19;20013;-30
2023/04/15 02:00:46;;;;;;;10.63;9.15;;;14.30;99.90;;;;;;4589544;19;20015;-30
2023/04/15 02:02:18;;;;;;;11.93;9.20;;;14.30;99.90;;;;;;4589698;19;20527;-30
2023/04/15 02:03:50;;;;;;;11.37;9.40;;;14.30;99.90;;;;;;4589663;19;20010;-30
2023/04/15 02:05:24;;;;;;;10.30;9.03;;;14.30;99.90;;;;;;4590156;19;20038;-31
2023/04/15 02:06:55;;;;;;;10.55;9.23;;;14.30;99.90;;;;;;4588164;19;20007;-30
2023/04/15 02:08:27;;;;;;;12.20;9.70;;;14.30;99.90;;;;;;4589318;19;20078;-30
2023/04/15 02:10:00;;;;;;;11.27;8.70;;;14.30;99.90;;;;;;4594906;19;20006;-30
2023/04/15 02:11:31;;;;;;;10.38;9.25;;;14.30;99.90;;;;;;4594421;19;20027;-30
2023/04/15 02:13:02;;;;;;;10.35;8.80;;;14.30;99.90;;;;;;4594157;19;20026;-30
2023/04/15 02:14:33;;;;;;;14.70;9.20;;;14.20;99.90;;;;;;4592787;19;20490;-30
2023/04/15 02:16:19;;;;;;;12.40;8.50;;;14.30;99.90;;;;;;4594080;19;20014;-30
2023/04/15 02:17:54;;;;;;;9.97;8.57;;;14.30;99.90;;;;;;4594835;19;20010;-30
2023/04/15 02:19:26;;;;;;;10.67;8.57;;;14.30;99.90;;;;;;4594233;19;20025;-30
2023/04/15 02:20:57;;;;;;;9.98;8.85;;;14.30;99.90;;;;;;4594225;19;20011;-30
2023/04/15 02:22:30;;;;;;;11.33;8.73;;;14.30;99.90;;;;;;4594076;19;20010;-31
2023/04/15 02:24:03;;;;;;;11.30;8.70;;;14.30;99.90;;;;;;4591530;19;20042;-30
2023/04/15 02:25:36;;;;;;;10.60;8.80;;;14.30;99.90;;;;;;4593263;19;20018;-30
2023/04/15 02:27:08;;;;;;;10.40;8.97;;;14.30;99.90;;;;;;4593982;19;20007;-30
2023/04/15 02:28:39;;;;;;;10.85;8.98;;;14.30;99.90;;;;;;4592886;19;20014;-31
2023/04/15 02:30:11;;;;;;;11.43;8.47;;;14.30;99.90;;;;;;4593387;19;20010;-30
2023/04/15 02:31:44;;;;;;;10.60;8.90;;;14.30;99.90;;;;;;4593856;19;20011;-30
2023/04/15 02:33:17;;;;;;;10.70;9.00;;;14.40;99.90;;;;;;4593973;19;20006;-30
2023/04/15 02:34:49;;;;;;;10.90;9.17;;;14.30;99.90;;;;;;4593983;19;20034;-30
2023/04/15 02:36:22;;;;;;;9.80;8.73;;;14.30;99.90;;;;;;4592859;19;20083;-30
2023/04/15 02:37:54;;;;;;;11.00;8.77;;;14.30;99.90;;;;;;4593122;19;20011;-31
2023/04/15 02:39:27;;;;;;;9.70;8.67;;;14.30;99.90;;;;;;4593664;19;20021;-30
2023/04/15 02:41:00;;;;;;;9.20;8.20;;;14.30;99.90;;;;;;4594475;19;20006;-30
2023/04/15 02:42:33;;;;;;;11.52;9.48;;;14.30;99.90;;;;;;4592887;19;20014;-30
2023/04/15 02:44:08;;;;;;;10.73;9.33;;;14.30;99.90;;;;;;4592587;19;20013;-31
2023/04/15 02:45:40;;;;;;;12.10;9.18;;;14.30;99.90;;;;;;4592975;19;20014;-30
2023/04/15 02:47:14;;;;;;;10.57;9.10;;;14.30;99.90;;;;;;4592707;19;20043;-30
2023/04/15 02:48:45;;;;;;;10.20;9.07;;;14.20;99.90;;;;;;4592916;19;20013;-30
2023/04/15 02:50:18;;;;;;;10.00;8.87;;;14.30;99.90;;;;;;4593659;19;20003;-30
2023/04/15 02:51:50;;;;;;;;;;;14.30;99.90;;;;;;4594347;19;20342;-30
2023/04/15 02:53:21;;;;;;;10.33;8.70;;;14.20;99.90;;;;;;4593466;19;20363;-30
2023/04/15 02:54:59;;;;;;;9.88;8.38;;;14.30;99.90;;;;;;4593016;19;20441;-30
2023/04/15 02:56:31;;;;;;;10.67;9.00;;;14.30;99.90;;;;;;4593514;19;20029;-31
2023/04/15 02:58:03;;;;;;;;;;;14.30;99.90;;;;;;4594606;19;20346;-31
2023/04/15 02:59:34;;;;;;;11.10;9.30;;;14.30;99.90;;;;;;4593698;19;19915;-31
2023/04/15 03:01:07;;;;;;;;;;;14.30;99.90;;;;;;4593540;19;20512;-31
2023/04/15 03:02:40;;;;;;;11.07;8.87;;;14.30;99.90;;;;;;4593156;19;19926;-30
2023/04/15 03:04:13;;;;;;;10.13;8.77;;;14.30;99.90;;;;;;4593719;19;20005;-30
2023/04/15 03:05:44;;;;;;;9.23;8.23;;;14.30;99.90;;;;;;4593314;19;20023;-30
2023/04/15 03:07:17;;;;;;;12.37;9.27;;;14.30;99.90;;;;;;4593197;19;20010;-30
2023/04/15 03:08:49;;;;;;;10.25;8.95;;;14.30;99.90;;;;;;4593242;19;20015;-30
2023/04/15 03:10:20;;;;;;;9.27;8.20;;;14.30;99.90;;;;;;4593561;19;20471;-30
2023/04/15 03:11:53;;;;;;;9.83;8.70;;;14.20;99.90;;;;;;4592175;19;20030;-31
2023/04/15 03:13:25;;;;;;;9.13;7.07;;;14.20;99.90;;;;;;4591488;19;20014;-30
2023/04/15 03:14:56;;;;;;;11.15;9.07;;;14.20;99.90;;;;;;4591849;19;20511;-31
2023/04/15 03:16:29;;;;;;;11.03;8.87;;;14.20;99.90;;;;;;4592523;19;20013;-30
2023/04/15 03:18:00;;;;;;;9.90;8.45;;;14.20;99.90;;;;;;4591709;19;20011;-30
2023/04/15 05:09:18;;;;;;;12.63;10.97;;;14.50;99.90;;;;;;4589063;19;20018;-30
2023/04/15 05:10:50;;;;;;;11.67;9.60;;;14.40;99.90;;;;;;4590195;19;20357;-30
2023/04/15 05:12:21;;;;;;;11.95;9.68;;;14.40;99.90;;;;;;4589569;19;20029;-30
2023/04/15 05:13:52;;;;;;;11.15;9.80;;;14.40;99.90;;;;;;4589186;19;20349;-31
2023/04/15 05:15:24;;;;;;;11.70;10.10;;;14.50;99.90;;;;;;4590975;19;20041;-30
2023/04/15 05:16:56;;;;;;;14.00;10.53;;;14.40;99.90;;;;;;4589959;19;20025;-31
2023/04/15 05:18:27;;;;;;;10.65;9.55;;;14.40;99.90;;;;;;4590283;19;20034;-30
2023/04/15 05:19:58;;;;;;;12.27;9.73;;;14.40;99.90;;;;;;4588610;19;20014;-31
2023/04/15 05:21:30;;;;;;;12.93;10.73;;;14.40;99.90;;;;;;4589653;19;20015;-31
2023/04/15 05:23:02;;;;;;;13.13;11.13;;;14.40;99.90;;;;;;4590097;19;20506;-31
2023/04/15 05:24:33;;;;;;;13.15;10.80;;;14.40;99.90;;;;;;4587705;19;20021;-31
2023/04/15 05:26:04;;;;;;;12.85;10.48;;;14.40;99.90;;;;;;4589609;19;20006;-31
2023/04/15 05:27:35;;;;;;;11.88;10.55;;;14.40;99.90;;;;;;4588486;19;20022;-31
2023/04/15 05:29:07;;;;;;;12.47;11.17;;;14.40;99.90;;;;;;4589617;19;20043;-30
2023/04/15 05:30:39;;;;;;;13.90;11.80;;;14.40;99.90;;;;;;4588083;19;20011;-30
2023/04/15 05:32:10;;;;;;;12.88;11.48;;;14.40;99.90;;;;;;4590697;19;20579;-30
2023/04/15 05:35:50;;;;;;;13.43;11.10;;;14.50;99.90;;;;;;4589947;19;20031;-31
2023/04/15 05:37:21;;;;;;;13.32;11.25;;;14.50;99.90;;;;;;4588457;19;20015;-30
2023/04/15 05:38:53;;;;;;;12.82;11.27;;;14.50;99.90;;;;;;4589244;19;20082;-30
2023/04/15 05:40:24;;;;;;;12.52;11.05;;;14.50;99.90;;;;;;4589140;19;20112;-31
2023/04/15 05:41:56;;;;;;;12.82;11.02;;;14.50;99.90;;;;;;4590839;19;20019;-30
2023/04/15 05:43:27;;;;;;;13.43;10.93;;;14.60;99.90;;;;;;4591537;19;20086;-31
2023/04/15 05:45:00;;;;;;;13.37;10.90;;;14.60;99.90;;;;;;4595041;19;20014;-31
2023/04/15 05:46:32;;;;;;;13.43;11.23;;;14.70;99.90;;;;;;4594836;19;20491;-30
2023/04/15 05:48:05;;;;;;;11.83;10.53;;;14.70;99.90;;;;;;4595100;19;20013;-31
2023/04/15 05:49:36;;;;;;;15.60;12.05;;;14.80;99.90;;;;;;4592707;19;20364;-30
2023/04/15 05:51:09;;;;;;;12.50;11.20;;;14.80;99.90;;;;;;4592754;19;20446;-31
2023/04/15 05:52:40;;;;;;;12.63;11.32;;;14.80;99.90;;;;;;4594369;19;20466;-30
2023/04/15 05:54:11;;;;;;;15.52;11.60;;;14.70;99.90;;;;;;4591931;19;20475;-30
2023/04/15 05:55:42;;;;;;;14.65;12.45;;;14.80;99.90;;;;;;4594188;19;20018;-30
2023/04/15 05:57:14;;;;;;;16.00;13.25;;;14.70;99.90;;;;;;4593064;19;20014;-31
2023/04/15 05:58:47;;;;;;;15.27;12.87;;;14.70;99.90;;;;;;4594746;19;20010;-31
2023/04/15 06:00:19;;;;;;;15.02;13.40;;;14.70;99.90;;;;;;4593500;19;20019;-31
2023/04/15 06:01:51;;;;;;;15.83;13.73;;;14.60;99.90;;;;;;4593106;19;20345;-30
2023/04/15 06:03:22;;;;;;;15.25;13.63;;;14.60;99.90;;;;;;4595074;19;20014;-30
2023/04/15 06:04:54;;;;;;;15.10;12.63;;;14.60;99.90;;;;;;4593676;19;20475;-30
2023/04/15 06:06:26;;;;;;;13.68;11.93;;;14.60;99.90;;;;;;4594034;19;20006;-31
2023/04/15 06:07:58;;;;;;;13.73;11.97;;;14.60;99.90;;;;;;4591932;19;20031;-30
2023/04/15 06:09:37;;;;;;;16.05;12.73;;;14.60;99.90;;;;;;4594794;19;20094;-31
2023/04/15 06:11:16;;;;;;;13.82;11.20;;;14.60;99.90;;;;;;4594064;19;20014;-30
2023/04/15 06:12:52;;;;;;;12.83;11.57;;;14.50;99.90;;;;;;4592311;19;20025;-31
2023/04/15 06:14:23;;;;;;;12.00;10.43;;;14.50;99.90;;;;;;4591950;19;20555;-30
2023/04/15 06:15:54;;;;;;;12.07;10.85;;;14.50;99.90;;;;;;4593888;19;20022;-31
2023/04/15 06:17:25;;;;;;;12.48;10.95;;;14.50;99.90;;;;;;4594991;19;20078;-30
2023/04/15 06:18:58;;;;;;;13.07;9.97;;;14.50;99.90;;;;;;4593575;19;20018;-30
2023/04/15 06:20:29;;;;;;;12.27;10.60;;;14.40;99.90;;;;;;4592677;19;20014;-31
2023/04/15 06:22:00;;;;;;;13.00;10.20;;;14.40;99.90;;;;;;4594705;19;20385;-31
2023/04/15 06:23:39;;;;;;;;;;;14.50;99.90;;;;;;4594031;19;20025;-31
2023/04/15 06:25:10;;;;;;;12.20;10.47;;;14.40;99.90;;;;;;4594396;19;19914;-31
2023/04/15 06:26:42;;;;;;;13.40;12.05;;;14.50;99.90;;;;;;4592737;19;20013;-30
2023/04/15 06:28:13;;;;;;;15.13;13.70;;;13.60;99.90;;;;;;4594438;19;20357;-30
2023/04/15 06:29:45;;;;;;;14.80;13.45;;;12.50;99.90;;;;;;4593885;19;20018;-30
2023/04/15 06:31:16;;;;;;;16.73;15.17;;;11.90;99.90;;;;;;4591807;19;20011;-30
2023/04/15 06:32:48;;;;;;;16.77;15.18;;;11.60;99.90;;;;;;4591866;19;20456;-30
2023/04/15 06:34:19;;;;;;;17.15;15.55;;;11.50;99.90;;;;;;4591186;19;20014;-30
2023/04/15 06:35:52;;;;;;;19.65;17.85;;;11.50;99.90;;;;;;4593552;19;20018;-29
2023/04/15 06:37:23;;;;;;;28.17;25.47;;;11.40;99.90;;;;;;4592194;19;20011;-30
2023/04/15 06:38:55;;;;;;;25.05;22.65;;;11.40;99.90;;;;;;4592418;19;20559;-30
2023/04/15 06:40:28;;;;;;;23.80;21.50;;;11.40;99.90;;;;;;4593571;19;20022;-30
2023/04/15 06:42:00;;;;;;;19.40;17.60;;;11.40;99.90;;;;;;4593532;19;20856;-30
2023/04/15 06:43:32;;;;;;;20.48;18.63;;;11.40;99.90;;;;;;4594252;19;20017;-30
2023/04/15 06:45:04;;;;;;;;;;;11.40;99.90;;;;;;4592026;19;20031;-30
2023/04/15 06:46:35;;;;;;;25.23;22.85;;;11.40;99.90;;;;;;4593405;19;20232;-30
2023/04/15 06:48:06;;;;;;;34.00;30.60;;;11.40;99.90;;;;;;4594327;19;20018;-30
2023/04/15 06:49:39;;;;;;;27.92;25.23;;;11.40;99.90;;;;;;4595734;19;19999;-29
2023/04/15 06:51:10;;;;;;;32.47;29.43;;;11.40;99.90;;;;;;4594931;19;20042;-30
2023/04/15 06:52:41;;;;;;;28.65;26.00;;;11.40;99.90;;;;;;4595704;19;20784;-30
2023/04/15 06:54:14;;;;;;;29.33;26.57;;;11.40;99.90;;;;;;4591645;19;20480;-30
2023/04/15 06:55:47;;;;;;;24.27;22.07;;;11.40;99.90;;;;;;4591694;19;20468;-30
2023/04/15 06:57:18;;;;;;;28.10;25.50;;;11.40;99.90;;;;;;4595073;19;20453;-30
2023/04/15 06:58:50;;;;;;;30.60;27.80;;;11.40;99.90;;;;;;4593359;19;20010;-30
2023/04/15 07:00:24;;;;;;;30.27;27.57;;;11.40;99.90;;;;;;4593217;19;20850;-30
2023/04/15 07:01:55;;;;;;;23.58;21.38;;;11.50;99.90;;;;;;4592992;19;20440;-30
2023/04/15 07:03:28;;;;;;;32.47;29.13;;;11.40;99.90;;;;;;4593410;19;20006;-30
2023/04/15 07:05:00;;;;;;;48.88;38.42;;;11.50;99.90;;;;;;4593354;19;20475;-30
2023/04/15 07:06:31;;;;;;;37.22;33.13;;;11.50;99.90;;;;;;4593081;19;20015;-30
2023/04/15 07:08:04;;;;;;;51.60;45.37;;;11.50;99.90;;;;;;4591990;19;20090;-30
2023/04/15 07:09:36;;;;;;;;;;;11.40;99.90;;;;;;4594606;19;20501;-30
2023/04/15 07:11:07;;;;;;;33.57;30.23;;;11.50;99.90;;;;;;4591069;19;19922;-30
2023/04/15 07:12:38;;;;;;;35.35;31.80;;;11.50;99.90;;;;;;4593110;19;21063;-30
2023/04/15 07:14:11;;;;;;;49.70;44.70;;;11.50;99.90;;;;;;4592779;19;20018;-30
2023/04/15 07:15:43;;;;;;;44.17;39.83;;;11.50;99.90;;;;;;4590578;19;20469;-30
2023/04/15 07:17:15;;;;;;;36.23;32.63;;;11.50;99.90;;;;;;4591784;19;20792;-30
2023/04/15 07:18:47;;;;;;;;;;;11.50;99.90;;;;;;4592362;19;20517;-30
2023/04/15 07:20:19;;;;;;;30.45;27.30;;;11.80;99.90;;;;;;4592731;19;19929;-30
2023/04/15 07:21:50;;;;;;;26.00;23.30;;;12.20;99.90;;;;;;4593057;19;20026;-30
2023/04/15 07:23:22;;;;;;;23.52;20.98;;;12.50;99.90;;;;;;4593257;19;20041;-30
2023/04/15 07:24:55;;;;;;;21.93;19.63;;;12.80;99.90;;;;;;4589017;19;20019;-30
2023/04/15 07:26:26;;;;;;;22.20;19.70;;;13.00;99.90;;;;;;4589623;19;20037;-31
2023/04/15 07:27:58;;;;;;;20.67;18.58;;;13.20;99.90;;;;;;4589934;19;20033;-31
2023/04/15 07:29:29;;;;;;;19.73;17.48;;;13.40;99.90;;;;;;4589670;19;20011;-30
2023/04/15 07:31:00;;;;;;;18.73;16.73;;;13.60;99.90;;;;;;4587806;19;20085;-30
2023/04/15 07:32:33;;;;;;;20.20;17.63;;;13.70;99.90;;;;;;4591844;19;20011;-31
2023/04/15 07:34:06;;;;;;;25.47;20.53;;;13.80;99.90;;;;;;4591007;19;20018;-31
2023/04/15 07:35:37;;;;;;;39.43;35.30;;;13.90;99.90;;;;;;4592684;19;20085;-31
2023/04/15 07:37:08;;;;;;;30.13;26.95;;;14.00;99.90;;;;;;4589584;19;20019;-30
2023/04/15 07:38:41;;;;;;;23.13;20.33;;;14.10;99.90;;;;;;4589069;19;20064;-31
2023/04/15 07:40:13;;;;;;;21.02;18.60;;;14.20;99.90;;;;;;4587837;19;20014;-31
2023/04/15 07:41:46;;;;;;;19.43;16.90;;;14.20;99.90;;;;;;4589715;19;20014;-30
2023/04/15 07:43:17;;;;;;;19.27;17.33;;;14.30;99.90;;;;;;4588672;19;20031;-30
2023/04/15 07:44:51;;;;;;;19.63;17.60;;;14.40;99.90;;;;;;4590143;19;20037;-31
2023/04/15 07:46:23;;;;;;;16.08;14.15;;;14.40;99.90;;;;;;4591955;19;20011;-30
2023/04/15 07:47:55;;;;;;;15.55;13.05;;;14.40;99.90;;;;;;4591599;19;20015;-30
2023/04/15 07:49:26;;;;;;;14.75;13.25;;;14.40;99.90;;;;;;4592353;19;20492;-30
2023/04/15 07:50:58;;;;;;;17.77;15.00;;;14.50;99.90;;;;;;4591699;19;20580;-31
2023/04/15 07:52:29;;;;;;;16.27;14.32;;;14.50;99.90;;;;;;4589506;19;20011;-30
2023/04/15 07:54:02;;;;;;;18.53;14.67;;;14.60;99.90;;;;;;4589703;19;20014;-30
2023/04/15 07:55:33;;;;;;;14.88;13.35;;;14.60;99.90;;;;;;4589438;19;20015;-30
2023/04/15 07:57:05;;;;;;;18.23;15.25;;;14.60;99.90;;;;;;4589858;19;20030;-31
2023/04/15 07:58:37;;;;;;;15.50;13.90;;;14.60;99.90;;;;;;4589989;19;20034;-30
2023/04/15 08:00:09;;;;;;;16.60;13.73;;;14.60;99.90;;;;;;4589233;19;20582;-31
2023/04/15 08:01:41;;;;;;;15.50;13.88;;;14.70;99.90;;;;;;4590706;19;20022;-30
2023/04/15 08:03:14;;;;;;;16.40;14.73;;;14.70;99.90;;;;;;4589849;19;20086;-31
2023/04/15 08:04:46;;;;;;;16.27;14.57;;;14.70;99.90;;;;;;4591036;19;20344;-30
2023/04/15 08:06:18;;;;;;;;;;;14.70;99.90;;;;;;4590157;19;20037;-31
2023/04/15 08:07:49;;;;;;;17.35;15.13;;;14.70;99.90;;;;;;4589977;19;19922;-31
2023/04/15 08:09:22;;;;;;;16.65;14.85;;;14.80;99.90;;;;;;4589589;19;20387;-31
2023/04/15 08:10:53;;;;;;;15.75;13.98;;;14.90;99.90;;;;;;4589580;19;20045;-30
2023/04/15 08:12:24;;;;;;;15.68;14.07;;;15.00;99.90;;;;;;4589443;19;20468;-31
2023/04/15 08:13:57;;;;;;;15.95;14.05;;;15.10;99.90;;;;;;4589904;19;20014;-31
2023/04/15 08:15:28;;;;;;;15.77;13.77;;;15.10;99.90;;;;;;4587867;19;20499;-31
2023/04/15 08:17:00;;;;;;;16.98;14.30;;;15.00;99.90;;;;;;4589081;19;20014;-31
2023/04/15 08:18:31;;;;;;;23.73;21.35;;;15.00;99.90;;;;;;4589157;19;20496;-31
2023/04/15 08:20:04;;;;;;;23.27;20.92;;;14.90;99.90;;;;;;4589774;19;20032;-31
2023/04/15 08:21:36;;;;;;;21.30;19.00;;;14.90;99.90;;;;;;4589516;19;20102;-31
2023/04/15 08:23:08;;;;;;;21.88;19.58;;;14.80;99.90;;;;;;4586156;19;20385;-31
2023/04/15 08:24:40;;;;;;;25.58;22.23;;;14.80;99.90;;;;;;4586250;19;20022;-31
2023/04/15 08:26:11;;;;;;;32.90;28.77;;;14.80;99.90;;;;;;4588774;19;20018;-31
2023/04/15 08:27:44;;;;;;;36.28;30.17;;;14.80;99.90;;;;;;4588589;19;20018;-31
2023/04/15 08:29:15;;;;;;;36.63;30.33;;;14.90;99.90;;;;;;4587062;19;20396;-31
2023/04/15 08:30:47;;;;;;;31.20;26.02;;;14.80;99.90;;;;;;4587875;19;20346;-31
2023/04/15 08:32:19;;;;;;;36.75;30.42;;;14.80;99.90;;;;;;4587419;19;20014;-31
2023/04/15 08:33:51;;;;;;;27.30;24.40;;;14.80;99.90;;;;;;4587925;19;20031;-31
2023/04/15 08:35:23;;;;;;;31.90;25.33;;;14.80;99.90;;;;;;4589013;19;20045;-31
2023/04/15 08:36:54;;;;;;;25.00;22.27;;;14.80;99.90;;;;;;4588861;19;20017;-31
2023/04/15 08:38:27;;;;;;;25.88;21.63;;;14.80;99.90;;;;;;4588320;19;20127;-31
2023/04/15 08:39:58;;;;;;;29.55;25.33;;;14.80;99.90;;;;;;4588968;19;20022;-31
2023/04/15 08:41:45;;;;;;;26.15;23.38;;;14.80;99.90;;;;;;4589595;19;20023;-31
2023/04/15 08:43:27;;;;;;;31.27;27.08;;;14.80;99.90;;;;;;4588516;19;20039;-31
2023/04/15 08:45:00;;;;;;;34.40;30.98;;;14.80;99.90;;;;;;4588194;19;20042;-31
2023/04/15 08:46:35;;;;;;;30.30;27.00;;;14.80;99.90;;;;;;4588150;19;20106;-31
2023/04/15 08:48:06;;;;;;;20.25;18.15;;;14.80;99.90;;;;;;4589060;19;20021;-31
2023/04/15 08:49:40;;;;;;;20.23;18.05;;;14.80;99.90;;;;;;4588502;19;20464;-31
2023/04/15 08:51:14;;;;;;;21.67;19.27;;;14.80;99.90;;;;;;4588860;19;20010;-31
2023/04/15 08:52:47;;;;;;;27.47;24.53;;;14.80;99.90;;;;;;4589390;19;20034;-31
2023/04/15 08:54:18;;;;;;;24.05;20.38;;;14.80;99.90;;;;;;4589333;19;20098;-31
2023/04/15 08:55:51;;;;;;;21.52;17.80;;;14.80;99.90;;;;;;4588197;19;20015;-31
2023/04/15 08:57:26;;;;;;;14.60;12.95;;;14.80;99.90;;;;;;4587805;19;20047;-31
2023/04/15 08:58:59;;;;;;;19.95;17.33;;;14.80;99.90;;;;;;4589126;19;20045;-31
2023/04/15 09:00:32;;;;;;;19.50;15.57;;;14.80;99.90;;;;;;4589824;19;20054;-31
2023/04/15 09:02:05;;;;;;;18.83;15.38;;;14.80;99.90;;;;;;4589602;19;20023;-31
2023/04/15 09:03:39;;;;;;;19.10;16.07;;;14.80;99.90;;;;;;4587960;19;20081;-31
2023/04/15 09:05:11;;;;;;;25.17;20.38;;;14.80;99.90;;;;;;4588189;19;20043;-31
2023/04/15 09:06:42;;;;;;;31.13;25.35;;;14.80;99.90;;;;;;4588445;19;20027;-31
2023/04/15 09:08:14;;;;;;;31.40;23.10;;;14.80;99.90;;;;;;4588367;19;20082;-31
2023/04/15 09:09:46;;;;;;;19.55;17.00;;;14.80;99.90;;;;;;4588386;19;20022;-31
2023/04/15 09:11:18;;;;;;;16.60;14.48;;;14.80;99.90;;;;;;4589011;19;20026;-31
2023/04/15 09:12:49;;;;;;;26.35;20.15;;;14.90;99.90;;;;;;4587983;19;20029;-31
2023/04/15 09:14:21;;;;;;;30.65;24.98;;;14.90;99.90;;;;;;4586742;19;20043;-31
2023/04/15 09:15:52;;;;;;;22.50;17.80;;;14.80;99.90;;;;;;4587380;19;20517;-31
2023/04/15 09:17:25;;;;;;;20.55;17.13;;;14.90;99.90;;;;;;4587725;19;20051;-31
2023/04/15 09:18:56;;;;;;;25.20;20.52;;;14.80;99.90;;;;;;4588300;19;20482;-31
2023/04/15 09:20:27;;;;;;;21.95;18.15;;;14.80;99.90;;;;;;4588426;19;20022;-31
2023/04/15 09:21:59;;;;;;;37.63;29.77;;;14.80;99.90;;;;;;4584722;19;20519;-31
2023/04/15 09:23:31;;;;;;;;;;;14.80;99.90;;;;;;4589193;19;20026;-31
2023/04/15 09:25:02;;;;;;;20.75;17.35;;;14.80;99.90;;;;;;4588022;19;19915;-31
2023/04/15 09:26:36;;;;;;;22.13;19.05;;;14.80;99.90;;;;;;4587805;19;20019;-31
2023/04/15 09:28:08;;;;;;;22.95;18.08;;;14.80;99.90;;;;;;4587272;19;20018;-31
2023/04/15 09:29:41;;;;;;;23.55;21.02;;;14.80;99.90;;;;;;4585848;19;20380;-31
2023/04/15 09:31:13;;;;;;;;;;;14.70;99.90;;;;;;4590301;19;20025;-31
2023/04/15 09:32:52;;;;;;;23.02;19.73;;;14.70;99.90;;;;;;4586734;19;19911;-31
2023/04/15 09:34:34;;;;;;;21.90;18.65;;;14.80;99.90;;;;;;4587126;19;20605;-31
2023/04/15 09:36:05;;;;;;;18.73;15.88;;;14.70;99.90;;;;;;4587253;19;20074;-31
2023/04/15 09:40:00;;;;;;;15.10;12.85;;;14.70;99.90;;;;;;4589124;19;20279;-31
2023/04/15 09:41:32;;;;;;;15.43;12.70;;;14.70;99.90;;;;;;4587689;19;20031;-31
2023/04/15 09:43:05;;;;;;;17.50;14.27;;;14.70;99.90;;;;;;4587175;19;20018;-31
2023/04/15 09:44:36;;;;;;;15.17;12.90;;;14.60;99.90;;;;;;4588187;19;20022;-31
2023/04/15 10:09:45;;;;;;;18.50;14.87;;;14.60;99.90;;;;;;4587889;19;20014;-31
2023/04/15 10:11:20;;;;;;;21.48;19.17;;;14.60;99.90;;;;;;4587882;19;20017;-31